Time;durP1;ratioP1;P1;durP2;ratioP2;P2;SDS_P1;SDS_P2;PMS_P1;PMS_P2;Temp;Humidity;BMP_temperature;BMP_pressure;BME280_temperature;BME280_humidity;BME280_pressure;Samples;Min_cycle;Max_cycle;Signal;HPM_P1;HPM_P2
2022/10/03 00:01:57;;;;;;;6.43;4.10;;;12.90;96.40;;;;;;4992926;28;20437;-70
2022/10/03 00:04:48;;;;;;;10.37;5.93;;;13.00;96.60;;;;;;4987678;28;20563;-70
2022/10/03 00:07:32;;;;;;;6.03;4.60;;;12.80;96.70;;;;;;5007590;28;20828;-70
2022/10/03 00:10:05;;;;;;;8.73;5.23;;;12.70;97.00;;;;;;5050442;28;20415;-71
2022/10/03 00:12:46;;;;;;;7.60;5.17;;;12.80;97.20;;;;;;5046629;28;20506;-71
2022/10/03 00:15:31;;;;;;;9.83;6.10;;;12.90;97.20;;;;;;5047328;28;20420;-71
2022/10/03 00:18:14;;;;;;;12.90;7.20;;;12.70;97.00;;;;;;5050308;28;20411;-71
2022/10/03 00:20:49;;;;;;;9.80;6.00;;;12.60;97.00;;;;;;5049697;28;20407;-71
2022/10/03 00:23:26;;;;;;;9.87;6.00;;;12.60;97.20;;;;;;5044158;28;20893;-70
2022/10/03 00:26:27;;;;;;;10.73;6.70;;;12.60;97.30;;;;;;5043588;28;20850;-71
2022/10/03 00:29:01;;;;;;;11.20;6.80;;;12.70;97.30;;;;;;5052142;28;20415;-71
2022/10/03 00:31:53;;;;;;;10.00;6.43;;;12.70;97.30;;;;;;5052550;28;20476;-72
2022/10/03 00:34:49;;;;;;;10.77;7.13;;;12.70;97.10;;;;;;5041483;28;20528;-71
2022/10/03 00:37:25;;;;;;;10.83;7.33;;;12.80;97.00;;;;;;5047334;28;20407;-70
2022/10/03 00:39:59;;;;;;;11.27;7.80;;;12.70;96.90;;;;;;5051807;28;20426;-71
2022/10/03 00:42:40;;;;;;;10.47;5.87;;;12.60;96.80;;;;;;5050875;28;20461;-70
2022/10/03 00:45:08;;;;;;;10.60;7.07;;;12.50;96.80;;;;;;5048796;28;20411;-70
2022/10/03 00:47:44;;;;;;;13.87;7.63;;;12.60;96.90;;;;;;5050860;28;20422;-71
2022/10/03 00:50:36;;;;;;;15.23;8.37;;;12.60;96.80;;;;;;5052254;28;20437;-71
2022/10/03 00:53:31;;;;;;;21.97;10.93;;;12.70;96.60;;;;;;5040394;28;20468;-70
2022/10/03 00:56:14;;;;;;;16.33;8.40;;;12.70;96.50;;;;;;5051638;28;20426;-71
2022/10/03 00:59:05;;;;;;;12.77;7.30;;;12.70;96.40;;;;;;5049043;28;20764;-71
2022/10/03 01:01:33;;;;;;;14.40;7.57;;;12.80;96.40;;;;;;5049412;28;20439;-71
2022/10/03 01:04:07;;;;;;;14.83;7.37;;;12.80;96.30;;;;;;5045133;28;20549;-72
2022/10/03 01:06:45;;;;;;;16.07;8.53;;;12.90;96.20;;;;;;5050328;28;20942;-71
2022/10/03 01:09:29;;;;;;;16.13;9.00;;;12.90;96.20;;;;;;5049729;28;20929;-70
2022/10/03 01:12:22;;;;;;;13.63;8.90;;;12.80;96.00;;;;;;5042213;28;20988;-70
2022/10/03 01:14:48;;;;;;;17.83;9.00;;;12.80;96.10;;;;;;5050838;28;20548;-71
2022/10/03 01:17:26;;;;;;;15.40;8.00;;;12.90;96.10;;;;;;5047548;28;20910;-71
2022/10/03 01:20:11;;;;;;;13.17;7.90;;;12.90;96.10;;;;;;5049656;28;20498;-70
2022/10/03 01:23:07;;;;;;;13.13;7.90;;;13.00;96.00;;;;;;5051286;28;20467;-71
2022/10/03 01:25:58;;;;;;;14.30;8.10;;;13.00;95.90;;;;;;5047918;28;20433;-71
2022/10/03 01:31:32;;;;;;;15.03;7.90;;;13.00;96.00;;;;;;5046761;28;20414;-72
2022/10/03 01:34:30;;;;;;;13.37;7.80;;;13.00;96.00;;;;;;5045160;28;21228;-72
2022/10/03 01:37:10;;;;;;;14.07;8.13;;;13.00;96.10;;;;;;5047511;28;20522;-70
2022/10/03 01:39:54;;;;;;;16.47;10.47;;;13.10;96.10;;;;;;5049861;28;20958;-71
2022/10/03 01:42:45;;;;;;;15.53;9.07;;;13.00;95.90;;;;;;5050924;28;20443;-71
2022/10/03 01:45:39;;;;;;;15.50;7.80;;;12.90;95.90;;;;;;5047799;28;20422;-72
2022/10/03 01:48:27;;;;;;;13.70;8.60;;;12.90;96.10;;;;;;5050965;28;20437;-71
2022/10/03 01:51:02;;;;;;;14.70;9.20;;;12.90;96.20;;;;;;5051825;28;20818;-71
2022/10/03 01:53:57;;;;;;;15.73;8.90;;;12.80;96.20;;;;;;5051676;28;21017;-70
2022/10/03 01:56:43;;;;;;;17.73;11.00;;;12.90;96.50;;;;;;5049220;28;20403;-70
2022/10/03 01:59:36;;;;;;;19.63;10.77;;;12.90;96.10;;;;;;5053181;28;20973;-71
2022/10/03 02:02:25;;;;;;;18.20;10.30;;;12.70;95.90;;;;;;5054206;28;20423;-71
2022/10/03 02:05:01;;;;;;;19.50;9.80;;;12.60;96.20;;;;;;5006383;28;20512;-71
2022/10/03 02:07:51;;;;;;;19.53;10.20;;;12.60;96.50;;;;;;5052639;28;20839;-71
2022/10/03 02:10:37;;;;;;;23.83;9.23;;;12.70;96.60;;;;;;5050473;28;20442;-70
2022/10/03 02:13:27;;;;;;;14.60;8.73;;;12.80;96.60;;;;;;5040249;28;20552;-71
2022/10/03 02:16:13;;;;;;;19.83;12.03;;;12.60;96.50;;;;;;5043870;28;20431;-71
2022/10/03 02:18:45;;;;;;;24.03;12.50;;;12.60;96.40;;;;;;5010494;28;20434;-70
2022/10/03 02:21:21;;;;;;;22.17;12.33;;;12.50;96.70;;;;;;5050389;28;20442;-72
2022/10/03 02:24:01;;;;;;;25.00;11.50;;;12.40;96.90;;;;;;5049899;28;20469;-71
2022/10/03 02:26:45;;;;;;;14.47;8.67;;;12.30;97.20;;;;;;5050782;28;20959;-71
2022/10/03 02:29:29;;;;;;;14.90;8.83;;;12.50;97.40;;;;;;5045393;28;20426;-70
2022/10/03 02:32:12;;;;;;;16.73;9.67;;;12.60;97.30;;;;;;5039033;28;20415;-71
2022/10/03 02:34:41;;;;;;;16.13;8.10;;;12.60;97.10;;;;;;5049902;28;20853;-70
2022/10/03 02:37:34;;;;;;;17.70;7.70;;;12.60;97.00;;;;;;5050838;28;20477;-71
2022/10/03 02:40:30;;;;;;;17.03;9.33;;;12.60;96.90;;;;;;5046979;28;20433;-71
2022/10/03 02:43:16;;;;;;;15.30;9.70;;;12.60;96.90;;;;;;5046402;28;20497;-71
2022/10/03 02:45:54;;;;;;;14.03;8.30;;;12.60;96.80;;;;;;5050858;28;20988;-72
2022/10/03 02:48:44;;;;;;;13.43;8.60;;;12.50;96.70;;;;;;5046452;28;20961;-70
2022/10/03 02:51:16;;;;;;;23.33;10.47;;;12.50;96.50;;;;;;5048818;28;20451;-70
2022/10/03 02:54:02;;;;;;;22.73;10.67;;;12.40;96.50;;;;;;5048415;28;20475;-70
2022/10/03 02:56:48;;;;;;;20.37;10.00;;;12.40;96.80;;;;;;5049833;28;20475;-71
2022/10/03 02:59:55;;;;;;;21.87;10.53;;;12.40;96.80;;;;;;5045667;28;20480;-70
2022/10/03 03:02:45;;;;;;;17.70;9.63;;;12.50;96.80;;;;;;5045105;28;20411;-71
2022/10/03 03:05:29;;;;;;;18.03;9.17;;;12.50;96.70;;;;;;5044859;28;20411;-72
2022/10/03 03:08:23;;;;;;;17.13;10.00;;;12.60;96.70;;;;;;5049743;28;20557;-71
2022/10/03 03:11:25;;;;;;;22.73;10.63;;;12.60;96.70;;;;;;5043170;28;20930;-71
2022/10/03 03:14:17;;;;;;;17.00;9.37;;;12.60;96.80;;;;;;5043711;28;20556;-71
2022/10/03 03:17:09;;;;;;;20.03;9.20;;;12.70;96.80;;;;;;5048436;28;20496;-71
2022/10/03 03:19:57;;;;;;;13.47;8.63;;;12.70;96.70;;;;;;5050544;28;20426;-71
2022/10/03 03:22:34;;;;;;;18.07;8.50;;;12.70;96.70;;;;;;5053010;28;20415;-71
2022/10/03 03:25:24;;;;;;;11.83;7.73;;;12.70;96.80;;;;;;5053695;28;20411;-71
2022/10/03 03:28:10;;;;;;;19.93;9.23;;;12.70;96.70;;;;;;5049518;28;20415;-71
2022/10/03 03:30:51;;;;;;;17.83;9.70;;;12.60;96.60;;;;;;5054002;28;20720;-72
2022/10/03 03:33:50;;;;;;;19.50;10.20;;;12.70;96.60;;;;;;5054685;28;20470;-71
2022/10/03 03:36:15;;;;;;;16.83;9.10;;;12.60;96.60;;;;;;5052159;28;20415;-71
2022/10/03 03:38:50;;;;;;;15.90;7.80;;;12.60;96.60;;;;;;5054854;28;20509;-71
2022/10/03 03:41:42;;;;;;;12.60;7.80;;;12.50;96.50;;;;;;5053455;28;20222;-71
2022/10/03 03:44:45;;;;;;;16.73;8.27;;;12.40;96.50;;;;;;5046847;28;20465;-71
2022/10/03 03:47:16;;;;;;;16.57;9.17;;;12.20;96.70;;;;;;5057883;28;20449;-71
2022/10/03 03:50:00;;;;;;;16.73;8.93;;;12.20;97.00;;;;;;5055907;28;20496;-71
2022/10/03 03:52:26;;;;;;;16.30;9.27;;;12.10;97.10;;;;;;5053173;28;20465;-71
2022/10/03 03:54:57;;;;;;;13.97;8.27;;;12.00;97.10;;;;;;5053685;28;20466;-71
2022/10/03 03:57:31;;;;;;;13.97;7.70;;;12.00;97.30;;;;;;5049937;28;20185;-71
2022/10/03 04:00:20;;;;;;;15.73;8.33;;;12.00;97.40;;;;;;5053730;28;20418;-71
2022/10/03 04:03:01;;;;;;;21.10;8.10;;;12.00;97.40;;;;;;5051532;28;20447;-71
2022/10/03 04:06:04;;;;;;;13.90;7.23;;;12.00;97.50;;;;;;5053197;28;20414;-72
2022/10/03 04:09:08;;;;;;;16.37;8.33;;;12.00;97.50;;;;;;5050568;28;20581;-72
2022/10/03 04:11:51;;;;;;;19.30;9.40;;;12.00;97.60;;;;;;5048899;28;20417;-71
2022/10/03 04:14:45;;;;;;;24.80;11.27;;;12.00;97.50;;;;;;5042498;28;20478;-71
2022/10/03 04:20:22;;;;;;;25.27;10.10;;;11.90;97.50;;;;;;5049726;28;20406;-71
2022/10/03 04:23:18;;;;;;;17.97;9.47;;;12.00;97.60;;;;;;5045545;28;20439;-71
2022/10/03 04:26:09;;;;;;;17.23;8.73;;;11.90;97.80;;;;;;5056346;28;20506;-72
2022/10/03 04:28:44;;;;;;;24.07;10.43;;;11.90;97.70;;;;;;5056909;28;21018;-72
2022/10/03 04:31:18;;;;;;;15.47;8.40;;;11.80;97.70;;;;;;5046989;28;20450;-71
2022/10/03 04:34:11;;;;;;;19.57;9.00;;;11.80;97.80;;;;;;5050126;28;20487;-70
2022/10/03 04:36:49;;;;;;;17.30;8.70;;;11.90;98.00;;;;;;5049313;28;20422;-71
2022/10/03 04:39:39;;;;;;;23.60;11.10;;;11.90;97.90;;;;;;5048095;28;20418;-71
2022/10/03 04:42:20;;;;;;;16.70;8.70;;;11.80;97.90;;;;;;5045667;28;20519;-71
2022/10/03 04:44:54;;;;;;;15.73;8.50;;;11.80;98.20;;;;;;5044410;28;20525;-72
2022/10/03 04:47:26;;;;;;;18.57;8.50;;;11.90;98.30;;;;;;5047725;28;20422;-71
2022/10/03 04:50:27;;;;;;;23.87;10.47;;;12.00;98.20;;;;;;5051627;28;20415;-71
2022/10/03 04:53:21;;;;;;;18.23;9.83;;;12.00;98.20;;;;;;5048634;28;20821;-71
2022/10/03 04:56:11;;;;;;;19.27;10.43;;;12.00;98.20;;;;;;5049330;28;20478;-71
2022/10/03 04:58:49;;;;;;;16.10;8.67;;;12.00;98.10;;;;;;5049995;28;20423;-71
2022/10/03 05:01:33;;;;;;;17.37;9.10;;;12.00;97.70;;;;;;5052166;28;20423;-71
2022/10/03 05:04:04;;;;;;;19.83;10.17;;;11.80;97.50;;;;;;5048716;28;20837;-71
2022/10/03 05:06:37;;;;;;;25.73;11.87;;;11.70;97.50;;;;;;5050672;28;20502;-71
2022/10/03 05:09:20;;;;;;;25.33;10.57;;;11.60;97.60;;;;;;5051047;28;20501;-71
2022/10/03 05:12:39;;;;;;;19.63;10.87;;;11.50;97.60;;;;;;5047734;28;20501;-72
2022/10/03 05:15:08;;;;;;;17.27;9.57;;;11.50;97.70;;;;;;5041773;28;20489;-70
2022/10/03 05:17:41;;;;;;;21.37;10.77;;;11.50;97.80;;;;;;5054878;28;20415;-74
2022/10/03 05:20:22;;;;;;;18.47;9.30;;;11.50;97.80;;;;;;5055093;28;20431;-72
2022/10/03 05:22:51;;;;;;;19.60;10.60;;;11.50;97.70;;;;;;5047293;28;20585;-71
2022/10/03 05:25:44;;;;;;;23.73;9.67;;;11.60;97.70;;;;;;5047772;28;20862;-71
2022/10/03 05:28:25;;;;;;;20.40;10.10;;;11.60;97.60;;;;;;5049877;28;20471;-70
2022/10/03 05:31:11;;;;;;;23.00;10.57;;;11.50;97.60;;;;;;5044812;28;21003;-71
2022/10/03 05:33:41;;;;;;;23.43;11.17;;;11.60;97.60;;;;;;5048178;28;20528;-70
2022/10/03 05:36:07;;;;;;;24.83;11.53;;;11.50;97.60;;;;;;5048999;28;20423;-70
2022/10/03 05:39:10;;;;;;;19.33;9.90;;;11.60;97.70;;;;;;5049368;28;20511;-71
2022/10/03 05:41:38;;;;;;;17.13;9.00;;;11.60;97.70;;;;;;5049598;28;20196;-70
2022/10/03 05:44:23;;;;;;;16.73;8.70;;;11.60;97.50;;;;;;5042950;28;20472;-72
2022/10/03 05:47:05;;;;;;;16.47;9.33;;;11.60;97.30;;;;;;5048654;28;20456;-71
2022/10/03 05:49:38;;;;;;;18.33;8.90;;;11.60;97.30;;;;;;5047677;28;20415;-73
2022/10/03 05:52:37;;;;;;;17.53;9.30;;;11.60;97.40;;;;;;5048662;28;20416;-70
2022/10/03 05:55:22;;;;;;;20.63;10.13;;;11.60;97.40;;;;;;5045331;28;20482;-71
2022/10/03 05:58:15;;;;;;;20.33;10.47;;;11.60;97.50;;;;;;5046291;28;20410;-71
2022/10/03 06:01:03;;;;;;;25.90;12.40;;;11.60;97.60;;;;;;5050085;28;20428;-72
2022/10/03 06:04:00;;;;;;;35.77;14.77;;;11.60;97.60;;;;;;5046571;28;20503;-71
2022/10/03 06:06:56;;;;;;;36.57;14.07;;;11.60;97.90;;;;;;5047515;28;20502;-71
2022/10/03 06:09:34;;;;;;;38.30;16.73;;;11.70;98.10;;;;;;5051213;28;20411;-71
2022/10/03 06:12:03;;;;;;;36.87;15.73;;;11.60;98.00;;;;;;5045201;28;20560;-71
2022/10/03 06:14:50;;;;;;;30.80;15.00;;;11.60;98.20;;;;;;5047088;28;20974;-71
2022/10/03 06:17:21;;;;;;;41.77;16.87;;;11.60;98.30;;;;;;5049509;28;20570;-72
2022/10/03 06:20:24;;;;;;;47.07;17.20;;;11.70;98.40;;;;;;5049034;28;20411;-71
2022/10/03 06:23:09;;;;;;;35.77;15.23;;;11.70;98.30;;;;;;5036633;28;20598;-71
2022/10/03 06:25:59;;;;;;;37.63;15.47;;;11.70;98.10;;;;;;5050559;28;20480;-72
2022/10/03 06:29:03;;;;;;;33.90;16.97;;;11.90;98.20;;;;;;5049923;28;20419;-72
2022/10/03 06:32:03;;;;;;;34.10;14.50;;;12.00;98.10;;;;;;4988698;28;20560;-72
2022/10/03 06:35:07;;;;;;;30.57;13.53;;;11.90;96.80;;;;;;4984998;28;20477;-72
2022/10/03 06:38:06;;;;;;;29.70;14.50;;;11.90;96.30;;;;;;4930120;29;20428;-72
2022/10/03 06:41:00;;;;;;;29.87;13.80;;;12.00;96.30;;;;;;4929745;29;20811;-70
2022/10/03 06:43:37;;;;;;;26.40;12.50;;;12.00;95.90;;;;;;4925825;29;20483;-72
2022/10/03 06:46:34;;;;;;;26.10;13.80;;;12.10;94.90;;;;;;4932197;29;20476;-71
2022/10/03 06:49:26;;;;;;;27.23;12.50;;;12.20;94.60;;;;;;4926103;29;20943;-71
2022/10/03 06:52:16;;;;;;;25.80;13.23;;;12.30;94.50;;;;;;4930915;29;20426;-71
2022/10/03 06:55:05;;;;;;;35.53;14.87;;;12.40;94.30;;;;;;4928617;29;20546;-71
2022/10/03 06:57:58;;;;;;;28.10;14.23;;;12.20;94.00;;;;;;4929990;29;20488;-70
2022/10/03 07:00:32;;;;;;;31.90;14.60;;;12.20;94.30;;;;;;4931040;29;20516;-71
2022/10/03 07:03:03;;;;;;;30.93;13.63;;;12.10;94.50;;;;;;4955001;28;20470;-70
2022/10/03 07:05:47;;;;;;;29.43;14.23;;;12.20;94.80;;;;;;4988458;28;20922;-70
2022/10/03 07:08:40;;;;;;;28.73;14.87;;;12.30;94.70;;;;;;5016030;28;20415;-71
2022/10/03 07:11:09;;;;;;;32.33;13.27;;;12.20;94.40;;;;;;5051799;28;20986;-72
2022/10/03 07:14:07;;;;;;;29.40;14.00;;;12.10;94.80;;;;;;5048896;28;20482;-72
2022/10/03 07:17:05;;;;;;;32.47;13.50;;;12.10;95.00;;;;;;5047808;28;20453;-71
2022/10/03 07:19:48;;;;;;;30.17;14.30;;;12.00;95.00;;;;;;5045598;28;20469;-72
2022/10/03 07:23:05;;;;;;;33.03;13.60;;;12.00;95.20;;;;;;5049667;28;20423;-72
2022/10/03 07:25:42;;;;;;;29.23;13.03;;;11.90;94.90;;;;;;4971470;28;20645;-73
2022/10/03 07:28:46;;;;;;;34.70;13.80;;;11.90;95.00;;;;;;4973586;28;20454;-75
2022/10/03 07:31:18;;;;;;;32.23;14.17;;;12.00;94.90;;;;;;4964970;28;20825;-72
2022/10/03 07:34:20;;;;;;;35.03;14.93;;;11.90;95.10;;;;;;4966198;28;20544;-71
2022/10/03 07:39:58;;;;;;;42.03;17.27;;;12.00;95.00;;;;;;4968040;28;20469;-71
2022/10/03 07:42:37;;;;;;;38.70;16.47;;;12.00;95.20;;;;;;4968930;28;20998;-72
2022/10/03 07:45:22;;;;;;;30.90;14.30;;;12.20;95.40;;;;;;4970848;28;20426;-72
2022/10/03 07:48:21;;;;;;;33.17;13.80;;;12.40;95.20;;;;;;4975610;28;20426;-72
2022/10/03 07:50:52;;;;;;;27.90;14.47;;;12.50;94.60;;;;;;4973444;28;20423;-72
2022/10/03 07:53:52;;;;;;;32.43;14.50;;;12.50;94.00;;;;;;4970462;28;20486;-70
2022/10/03 07:56:31;;;;;;;32.97;13.50;;;12.50;93.70;;;;;;4975973;28;20427;-72
2022/10/03 07:59:08;;;;;;;38.40;16.27;;;12.30;93.80;;;;;;4959679;28;20919;-71
2022/10/03 08:01:53;;;;;;;31.43;14.90;;;12.30;94.00;;;;;;5011246;28;20419;-69
2022/10/03 08:04:59;;;;;;;29.80;14.87;;;12.30;94.20;;;;;;5038714;28;20463;-71
2022/10/03 08:07:34;;;;;;;30.57;14.00;;;12.30;94.00;;;;;;5046337;28;20922;-72
2022/10/03 08:10:18;;;;;;;39.47;15.33;;;12.40;94.10;;;;;;5051165;28;20410;-71
2022/10/03 08:13:17;;;;;;;23.70;11.63;;;12.50;93.50;;;;;;5049930;28;20438;-71
2022/10/03 08:15:52;;;;;;;30.60;14.00;;;12.70;93.50;;;;;;5048841;28;21135;-71
2022/10/03 08:18:41;;;;;;;30.60;14.53;;;12.80;93.00;;;;;;5051073;28;21069;-71
2022/10/03 08:21:19;;;;;;;30.43;13.93;;;12.80;92.80;;;;;;5053442;28;20419;-70
2022/10/03 08:24:11;;;;;;;32.00;14.37;;;12.60;92.90;;;;;;5048850;28;20447;-71
2022/10/03 08:27:14;;;;;;;35.93;14.60;;;12.70;93.20;;;;;;5059112;28;20430;-71
2022/10/03 08:30:17;;;;;;;24.47;13.20;;;12.80;92.60;;;;;;5053402;28;20415;-72
2022/10/03 08:33:23;;;;;;;35.20;14.20;;;12.50;92.50;;;;;;5049277;28;20445;-73
2022/10/03 08:36:15;;;;;;;26.70;12.70;;;12.40;93.50;;;;;;5033385;28;20458;-72
2022/10/03 08:39:08;;;;;;;26.63;13.30;;;12.40;93.80;;;;;;5049244;28;20426;-72
2022/10/03 08:42:02;;;;;;;42.00;14.57;;;12.30;93.70;;;;;;5050941;28;20439;-72
2022/10/03 08:44:43;;;;;;;26.97;12.63;;;12.20;94.00;;;;;;5044091;28;20455;-71
2022/10/03 08:47:21;;;;;;;30.57;14.10;;;12.20;94.30;;;;;;5048084;28;20882;-71
2022/10/03 08:50:05;;;;;;;25.83;11.47;;;12.40;94.50;;;;;;5053272;28;20411;-70
2022/10/03 08:52:49;;;;;;;26.47;11.53;;;12.50;93.60;;;;;;5050650;28;20529;-73
2022/10/03 08:55:18;;;;;;;28.67;12.13;;;12.60;92.50;;;;;;5047685;28;20561;-70
2022/10/03 08:58:13;;;;;;;27.60;11.20;;;12.80;91.90;;;;;;5052209;28;20819;-71
2022/10/03 09:01:07;;;;;;;23.00;11.00;;;12.80;91.70;;;;;;5051434;28;20415;-71
2022/10/03 09:04:01;;;;;;;25.37;10.50;;;12.90;90.60;;;;;;5042388;28;20473;-71
2022/10/03 09:06:36;;;;;;;18.50;9.20;;;12.80;90.70;;;;;;5048503;28;20415;-71
2022/10/03 09:09:20;;;;;;;18.03;9.50;;;12.70;90.20;;;;;;5049692;28;20438;-73
2022/10/03 09:11:49;;;;;;;16.70;8.93;;;12.70;90.40;;;;;;5048976;28;20561;-72
2022/10/03 09:14:39;;;;;;;17.90;9.60;;;13.10;90.50;;;;;;5044538;28;20589;-72
2022/10/03 09:17:29;;;;;;;22.60;9.63;;;13.30;89.20;;;;;;5048585;28;20418;-70
2022/10/03 09:20:30;;;;;;;15.87;8.27;;;13.40;88.70;;;;;;5045456;28;20403;-70
2022/10/03 09:23:19;;;;;;;24.53;9.63;;;13.70;88.60;;;;;;5024996;28;20538;-71
2022/10/03 09:26:05;;;;;;;20.80;9.20;;;13.70;85.70;;;;;;5050167;28;20426;-71
2022/10/03 09:28:30;;;;;;;22.93;10.00;;;13.80;87.40;;;;;;5051164;28;21003;-72
2022/10/03 09:31:08;;;;;;;17.10;9.47;;;14.10;86.90;;;;;;5049078;28;20506;-71
2022/10/03 09:34:05;;;;;;;18.57;8.00;;;13.90;86.30;;;;;;5047768;28;20208;-70
2022/10/03 09:37:07;;;;;;;14.30;8.47;;;13.90;86.80;;;;;;4989248;28;20531;-70
2022/10/03 09:39:51;;;;;;;15.87;8.80;;;13.60;86.30;;;;;;4988773;28;20471;-70
2022/10/03 09:42:55;;;;;;;20.43;9.40;;;13.80;87.30;;;;;;4983665;28;20450;-72
2022/10/03 09:45:48;;;;;;;11.80;7.50;;;14.20;86.60;;;;;;4988935;28;20422;-74
2022/10/03 09:48:27;;;;;;;14.77;8.20;;;14.10;81.90;;;;;;4989577;28;20496;-72
2022/10/03 09:51:11;;;;;;;19.20;9.10;;;13.90;84.30;;;;;;4990859;28;20433;-73
2022/10/03 09:53:44;;;;;;;14.13;8.00;;;14.10;84.60;;;;;;4983270;28;20560;-77
2022/10/03 09:56:53;;;;;;;15.80;8.93;;;14.30;84.30;;;;;;4979583;28;20452;-72
2022/10/03 09:59:33;;;;;;;13.93;8.00;;;14.10;83.00;;;;;;4987148;28;20434;-75
2022/10/03 10:02:17;;;;;;;14.53;7.60;;;13.80;83.00;;;;;;4987701;28;20457;-72
2022/10/03 10:04:57;;;;;;;11.23;6.57;;;13.90;83.60;;;;;;4970965;28;20921;-74
2022/10/03 10:07:53;;;;;;;12.57;6.67;;;14.00;82.40;;;;;;4987802;28;20458;-72
2022/10/03 10:10:42;;;;;;;16.50;7.40;;;14.00;81.90;;;;;;4988319;28;20796;-73
2022/10/03 10:13:33;;;;;;;10.33;6.70;;;14.00;81.80;;;;;;5020812;28;20484;-73
2022/10/03 10:16:14;;;;;;;13.07;7.20;;;14.30;80.60;;;;;;5043995;28;20419;-73
2022/10/03 10:18:59;;;;;;;14.33;6.83;;;14.30;80.60;;;;;;5049595;28;20510;-73
2022/10/03 10:21:47;;;;;;;13.53;7.23;;;14.60;80.60;;;;;;5044974;28;21031;-73
2022/10/03 10:24:49;;;;;;;17.00;7.07;;;14.90;78.60;;;;;;5042436;28;20456;-71
2022/10/03 10:27:50;;;;;;;15.60;6.87;;;14.80;76.70;;;;;;5046786;28;20419;-72
2022/10/03 10:30:49;;;;;;;10.80;6.60;;;14.60;77.00;;;;;;5045390;28;20411;-72
2022/10/03 10:33:30;;;;;;;15.70;7.50;;;14.90;77.40;;;;;;5039306;28;20465;-72
2022/10/03 10:36:32;;;;;;;17.10;7.20;;;15.50;76.50;;;;;;5049200;28;20420;-74
2022/10/03 10:39:13;;;;;;;11.77;6.70;;;15.70;73.50;;;;;;5037399;28;20472;-74
2022/10/03 10:42:03;;;;;;;13.00;6.63;;;15.60;74.20;;;;;;5047709;28;20430;-73
2022/10/03 10:44:34;;;;;;;16.37;7.10;;;15.70;73.60;;;;;;5042592;28;20462;-73
2022/10/03 10:47:26;;;;;;;18.20;6.70;;;15.50;73.60;;;;;;5047394;28;20419;-72
2022/10/03 10:50:29;;;;;;;14.63;6.97;;;15.90;72.40;;;;;;5044086;28;20415;-72
2022/10/03 10:53:36;;;;;;;11.63;6.23;;;15.90;71.80;;;;;;5045076;28;21248;-72
2022/10/03 10:56:41;;;;;;;8.27;6.10;;;15.30;73.60;;;;;;5051182;28;20474;-73
2022/10/03 10:59:31;;;;;;;11.53;5.80;;;15.70;74.20;;;;;;5052617;28;20427;-73
2022/10/03 11:02:21;;;;;;;10.60;6.20;;;15.90;72.90;;;;;;5052781;28;20428;-73
2022/10/03 11:05:24;;;;;;;16.47;6.50;;;16.30;71.60;;;;;;5049148;28;20442;-74
2022/10/03 11:08:11;;;;;;;15.90;7.20;;;16.40;71.10;;;;;;5043572;28;20414;-73
2022/10/03 11:11:04;;;;;;;12.57;7.20;;;16.10;71.60;;;;;;5045828;28;20472;-71
2022/10/03 11:13:57;;;;;;;12.60;6.33;;;15.90;72.40;;;;;;5046309;28;20469;-72
2022/10/03 11:16:44;;;;;;;11.00;6.67;;;16.00;73.50;;;;;;5044181;28;20444;-73
2022/10/03 11:19:52;;;;;;;17.63;6.43;;;16.00;73.00;;;;;;5045793;28;20508;-73
2022/10/03 11:22:55;;;;;;;14.00;5.60;;;16.00;71.70;;;;;;5052048;28;20457;-73
2022/10/03 11:26:17;;;;;;;13.37;6.50;;;15.60;72.30;;;;;;5047207;28;20429;-74
2022/10/03 11:29:19;;;;;;;9.80;6.50;;;15.60;73.90;;;;;;5010571;28;20417;-72
2022/10/03 11:31:48;;;;;;;12.30;6.97;;;15.60;74.00;;;;;;5052523;28;20429;-72
2022/10/03 11:34:44;;;;;;;14.37;7.13;;;15.80;72.70;;;;;;5045343;28;20471;-74
2022/10/03 11:37:36;;;;;;;12.37;6.70;;;16.40;72.70;;;;;;5050707;28;20418;-73
2022/10/03 11:40:52;;;;;;;12.47;6.40;;;17.30;68.80;;;;;;5047367;28;20452;-72
2022/10/03 11:43:36;;;;;;;10.50;6.00;;;17.10;68.60;;;;;;5016484;28;20501;-73
2022/10/03 11:46:19;;;;;;;9.73;6.33;;;16.60;70.80;;;;;;5051582;28;20414;-73
2022/10/03 11:49:19;;;;;;;10.63;6.10;;;15.80;71.80;;;;;;5054284;28;20521;-73
2022/10/03 11:52:11;;;;;;;10.57;5.30;;;15.60;73.50;;;;;;5054890;28;20439;-73
2022/10/03 11:54:40;;;;;;;11.60;6.03;;;15.80;72.30;;;;;;5048109;28;20473;-74
2022/10/03 11:57:16;;;;;;;14.40;6.27;;;15.90;72.00;;;;;;5058297;28;20421;-72
2022/10/03 12:00:00;;;;;;;10.20;6.03;;;16.40;71.00;;;;;;5057601;28;20509;-73
2022/10/03 12:02:59;;;;;;;10.33;4.60;;;16.60;69.90;;;;;;5052640;28;21009;-72
2022/10/03 12:05:47;;;;;;;9.30;4.33;;;16.90;68.30;;;;;;5058005;28;20803;-72
2022/10/03 12:11:20;;;;;;;7.47;4.03;;;17.80;64.20;;;;;;5063700;28;20469;-73
2022/10/03 12:13:55;;;;;;;9.90;5.10;;;18.00;64.10;;;;;;5059029;28;20472;-72
2022/10/03 12:16:28;;;;;;;7.27;3.70;;;18.80;61.30;;;;;;5058991;28;20423;-72
2022/10/03 12:19:09;;;;;;;12.17;4.97;;;18.30;58.50;;;;;;5053216;28;20430;-72
2022/10/03 12:21:55;;;;;;;7.53;4.37;;;18.40;60.90;;;;;;5053217;28;20793;-71
2022/10/03 12:24:33;;;;;;;7.83;4.30;;;17.70;63.10;;;;;;5050391;28;20482;-73
2022/10/03 12:27:14;;;;;;;8.67;4.30;;;17.30;65.10;;;;;;5046228;28;20418;-73
2022/10/03 12:29:57;;;;;;;10.30;4.57;;;16.80;64.20;;;;;;5051514;28;20803;-73
2022/10/03 12:33:01;;;;;;;11.17;4.73;;;16.50;66.30;;;;;;5054165;28;20427;-72
2022/10/03 12:35:41;;;;;;;12.27;4.67;;;16.30;67.50;;;;;;5051126;28;20845;-73
2022/10/03 12:38:19;;;;;;;11.30;4.70;;;15.60;70.70;;;;;;5049361;28;20420;-72
2022/10/03 12:41:02;;;;;;;10.10;4.70;;;15.90;70.20;;;;;;5053875;28;20410;-74
2022/10/03 12:44:03;;;;;;;10.23;4.93;;;16.00;70.10;;;;;;5047876;28;20559;-74
2022/10/03 12:46:50;;;;;;;13.57;5.20;;;16.00;69.40;;;;;;5059141;28;20415;-73
2022/10/03 12:49:51;;;;;;;8.33;4.67;;;15.90;70.10;;;;;;5052301;28;20454;-74
2022/10/03 12:52:34;;;;;;;12.20;5.30;;;15.90;69.70;;;;;;5054314;28;20431;-74
2022/10/03 12:55:25;;;;;;;11.00;4.20;;;15.90;69.90;;;;;;5045716;28;20915;-73
2022/10/03 12:58:13;;;;;;;9.67;4.00;;;15.90;69.80;;;;;;5049058;28;20468;-75
2022/10/03 13:00:59;;;;;;;5.67;4.13;;;16.70;68.20;;;;;;5046227;28;20884;-74
2022/10/03 13:03:43;;;;;;;9.20;3.97;;;17.70;64.80;;;;;;5041784;28;20474;-73
2022/10/03 13:06:11;;;;;;;8.37;4.70;;;18.50;62.90;;;;;;5051103;28;20751;-74
2022/10/03 13:08:52;;;;;;;10.50;5.00;;;19.10;60.60;;;;;;5051656;28;20419;-76
2022/10/03 13:11:31;;;;;;;8.40;5.07;;;18.90;59.60;;;;;;5052677;28;20489;-75
2022/10/03 13:14:25;;;;;;;67.37;33.33;;;17.60;64.20;;;;;;5047519;28;20472;-74
2022/10/03 13:17:20;;;;;;;11.83;5.73;;;17.80;65.10;;;;;;5051654;28;20427;-73
2022/10/03 13:20:05;;;;;;;10.10;5.07;;;17.20;65.80;;;;;;5050479;28;20427;-75
2022/10/03 13:22:52;;;;;;;11.97;4.90;;;16.90;67.30;;;;;;5050049;28;20458;-74
2022/10/03 13:25:24;;;;;;;7.20;5.03;;;17.00;67.70;;;;;;5049995;28;20866;-73
2022/10/03 13:28:11;;;;;;;11.07;4.87;;;17.20;66.30;;;;;;5051033;28;20811;-74
2022/10/03 13:30:52;;;;;;;9.23;4.47;;;17.20;66.70;;;;;;5050710;28;20441;-74
2022/10/03 13:33:22;;;;;;;10.20;4.77;;;17.00;66.10;;;;;;5048316;28;20492;-74
2022/10/03 13:35:57;;;;;;;12.40;4.93;;;17.20;66.40;;;;;;5050498;28;20430;-74
2022/10/03 13:38:44;;;;;;;11.83;4.93;;;17.50;66.40;;;;;;5046846;28;20811;-74
2022/10/03 13:41:13;;;;;;;8.03;5.07;;;16.70;65.70;;;;;;5045054;28;20527;-73
2022/10/03 13:43:46;;;;;;;12.40;5.43;;;16.00;69.10;;;;;;5047933;28;21381;-71
2022/10/03 13:46:18;;;;;;;10.63;4.80;;;16.20;68.90;;;;;;5047211;28;20416;-70
2022/10/03 13:48:55;;;;;;;9.47;4.83;;;16.30;67.60;;;;;;5052123;28;20429;-73
2022/10/03 13:51:40;;;;;;;10.23;4.63;;;16.10;67.60;;;;;;5052622;28;20427;-71
2022/10/03 13:54:09;;;;;;;10.30;5.60;;;15.70;69.10;;;;;;5050512;28;20620;-72
2022/10/03 13:56:56;;;;;;;8.07;4.80;;;15.70;69.20;;;;;;5052129;28;20436;-72
2022/10/03 13:59:46;;;;;;;12.33;4.90;;;16.00;68.80;;;;;;5048318;28;20566;-71
2022/10/03 14:02:40;;;;;;;9.00;4.27;;;16.10;67.60;;;;;;5051394;28;20426;-73
2022/10/03 14:05:33;;;;;;;12.47;4.70;;;16.40;67.70;;;;;;5052527;28;20423;-72
2022/10/03 14:08:08;;;;;;;10.17;4.80;;;16.70;66.10;;;;;;5050661;28;20423;-71
2022/10/03 14:10:43;;;;;;;10.53;4.50;;;16.60;66.10;;;;;;5047171;28;20429;-71
2022/10/03 14:13:35;;;;;;;6.80;4.03;;;16.40;67.00;;;;;;5047341;28;20557;-72
2022/10/03 14:16:19;;;;;;;10.43;4.27;;;16.90;66.90;;;;;;5045511;28;20468;-73
2022/10/03 14:18:56;;;;;;;11.23;5.07;;;17.20;65.80;;;;;;5055362;28;20430;-71
2022/10/03 14:21:27;;;;;;;7.33;3.87;;;17.40;63.70;;;;;;5057199;28;20414;-72
2022/10/03 14:23:53;;;;;;;7.87;3.53;;;17.00;63.70;;;;;;5049247;28;20469;-73